Time;durP1;ratioP1;P1;durP2;ratioP2;P2;SDS_P1;SDS_P2;PMS_P1;PMS_P2;Temp;Humidity;BMP_temperature;BMP_pressure;BME280_temperature;BME280_humidity;BME280_pressure;Samples;Min_cycle;Max_cycle;Signal;HPM_P1;HPM_P2
2022/10/07 00:02:19;;;;;;;;;;;;;;;20.79;50.52;102446.19;5134037;27;19970;-37
2022/10/07 00:04:45;;;;;;;;;;;;;;;20.79;50.43;102447.00;5140050;27;19986;-37
2022/10/07 00:07:11;;;;;;;;;;;;;;;20.78;50.44;102453.66;5131179;27;19923;-38
2022/10/07 00:09:37;;;;;;;;;;;;;;;20.79;50.33;102443.41;5115016;27;19923;-38
2022/10/07 00:12:02;;;;;;;;;;;;;;;20.78;50.49;102434.28;5130023;27;20022;-38
2022/10/07 00:14:28;;;;;;;;;;;;;;;20.79;50.37;102435.09;5134407;27;20363;-38
2022/10/07 00:16:54;;;;;;;;;;;;;;;20.78;50.48;102431.50;5131320;27;20094;-38
2022/10/07 00:19:19;;;;;;;;;;;;;;;20.79;50.56;102435.09;5132752;27;20026;-37
2022/10/07 00:21:45;;;;;;;;;;;;;;;20.79;50.50;102426.78;5130121;27;20403;-38
2022/10/07 00:24:11;;;;;;;;;;;;;;;20.78;50.49;102425.97;5138036;27;19924;-38
2022/10/07 00:26:37;;;;;;;;;;;;;;;20.79;50.41;102419.31;5114936;27;20179;-37
2022/10/07 00:29:03;;;;;;;;;;;;;;;20.79;50.35;102427.63;5135047;27;19973;-37
2022/10/07 00:31:30;;;;;;;;;;;;;;;20.78;50.36;102420.44;5117982;27;20435;-37
2022/10/07 00:33:55;;;;;;;;;;;;;;;20.79;50.35;102416.56;5119674;27;20437;-37
2022/10/07 00:36:22;;;;;;;;;;;;;;;20.78;50.42;102414.88;5111719;28;19924;-37
2022/10/07 00:38:50;;;;;;;;;;;;;;;20.78;50.49;102417.66;5130524;27;20407;-37
2022/10/07 00:41:17;;;;;;;;;;;;;;;20.79;50.37;102421.25;5134713;27;20294;-38
2022/10/07 00:43:43;;;;;;;;;;;;;;;20.78;50.40;102422.38;5115265;27;20003;-38
2022/10/07 00:46:15;;;;;;;;;;;;;;;20.78;50.38;102412.13;5129015;27;19932;-38
2022/10/07 00:48:41;;;;;;;;;;;;;;;20.79;50.62;102413.78;5107418;27;19931;-37
2022/10/07 00:51:06;;;;;;;;;;;;;;;20.79;50.41;102405.47;5128239;27;19930;-37
2022/10/07 00:53:32;;;;;;;;;;;;;;;20.79;50.34;102401.88;5133584;27;20310;-38
2022/10/07 00:56:01;;;;;;;;;;;;;;;20.79;50.50;102399.13;5133708;27;19983;-37
2022/10/07 00:58:27;;;;;;;;;;;;;;;20.78;50.44;102401.03;5133696;27;20012;-37
2022/10/07 01:00:52;;;;;;;;;;;;;;;20.79;50.42;102401.88;5116792;27;20650;-38
2022/10/07 01:03:18;;;;;;;;;;;;;;;20.79;50.51;102393.56;5140469;27;19938;-37
2022/10/07 01:05:43;;;;;;;;;;;;;;;20.79;50.35;102385.28;5132795;27;19931;-38
2022/10/07 01:08:09;;;;;;;;;;;;;;;20.79;50.54;102388.88;5131983;27;20375;-37
2022/10/07 01:10:38;;;;;;;;;;;;;;;20.79;50.53;102382.50;5107664;28;19931;-37
2022/10/07 01:13:05;;;;;;;;;;;;;;;20.79;50.41;102383.34;5135956;27;20018;-37
2022/10/07 01:15:34;;;;;;;;;;;;;;;20.78;50.23;102376.13;5131027;27;20026;-37
2022/10/07 01:18:20;;;;;;;;;;;;;;;20.79;50.43;102380.56;5133768;27;20465;-37
2022/10/07 01:20:56;;;;;;;;;;;;;;;20.79;50.28;102379.72;5121543;27;19951;-38
2022/10/07 01:23:30;;;;;;;;;;;;;;;20.78;50.31;102373.34;5139161;27;20253;-38
2022/10/07 01:26:15;;;;;;;;;;;;;;;20.79;50.52;102368.66;5135186;27;20343;-37
2022/10/07 01:28:57;;;;;;;;;;;;;;;20.79;50.47;102371.44;5131496;27;19978;-37
2022/10/07 01:31:24;;;;;;;;;;;;;;;20.78;50.44;102362.28;5137487;27;20389;-38
2022/10/07 01:33:50;;;;;;;;;;;;;;;20.79;50.29;102369.50;5117793;27;20104;-38
2022/10/07 01:36:16;;;;;;;;;;;;;;;20.79;50.33;102366.72;5118575;27;19925;-38
2022/10/07 01:38:43;;;;;;;;;;;;;;;20.79;50.46;102354.81;5118855;27;20089;-37
2022/10/07 01:41:10;;;;;;;;;;;;;;;20.79;50.34;102346.50;5140725;27;19962;-38
2022/10/07 01:43:35;;;;;;;;;;;;;;;20.78;50.48;102351.22;5119989;27;20014;-37
2022/10/07 01:46:01;;;;;;;;;;;;;;;20.79;50.52;102349.28;5136025;27;19942;-37
2022/10/07 01:48:27;;;;;;;;;;;;;;;20.79;50.27;102338.19;5134026;27;20107;-38
2022/10/07 01:50:53;;;;;;;;;;;;;;;20.78;50.48;102334.59;5136818;27;21197;-37
2022/10/07 01:53:23;;;;;;;;;;;;;;;20.79;50.34;102339.03;5133348;27;20026;-37
2022/10/07 01:55:50;;;;;;;;;;;;;;;20.78;50.35;102331.81;5139952;27;20076;-38
2022/10/07 01:58:34;;;;;;;;;;;;;;;20.78;50.31;102337.38;5116032;27;20422;-38
2022/10/07 02:01:19;;;;;;;;;;;;;;;20.79;50.42;102336.25;5130327;27;20339;-38
2022/10/07 02:03:50;;;;;;;;;;;;;;;20.79;50.35;102335.44;5120318;27;19924;-37
2022/10/07 02:06:35;;;;;;;;;;;;;;;20.79;50.30;102327.97;5132878;27;19945;-37
2022/10/07 02:09:03;;;;;;;;;;;;;;;20.78;50.46;102317.97;5134744;27;19974;-38
2022/10/07 02:11:29;;;;;;;;;;;;;;;20.78;50.30;102314.38;5113944;27;19999;-37
2022/10/07 02:14:00;;;;;;;;;;;;;;;20.78;50.45;102309.69;5137770;27;20003;-38
2022/10/07 02:16:32;;;;;;;;;;;;;;;20.79;50.44;102310.50;5131130;27;19962;-37
2022/10/07 02:18:57;;;;;;;;;;;;;;;20.79;50.53;102313.28;5135411;27;19978;-38
2022/10/07 02:21:25;;;;;;;;;;;;;;;20.79;50.37;102304.97;5135148;27;20017;-38
2022/10/07 02:23:51;;;;;;;;;;;;;;;20.79;50.39;102310.50;5132680;27;19931;-38
2022/10/07 02:26:17;;;;;;;;;;;;;;;20.78;50.38;102306.91;5133746;27;19931;-38
2022/10/07 02:28:43;;;;;;;;;;;;;;;20.78;50.45;102309.69;5138044;27;20398;-38
2022/10/07 02:31:09;;;;;;;;;;;;;;;20.78;50.35;102301.38;5137786;27;19924;-38
2022/10/07 02:33:34;;;;;;;;;;;;;;;20.79;50.37;102296.66;5138981;27;20322;-37
2022/10/07 02:36:02;;;;;;;;;;;;;;;20.79;50.31;102299.44;5133656;27;19923;-38
2022/10/07 02:38:28;;;;;;;;;;;;;;;20.78;50.53;102298.59;5116054;28;19946;-38
2022/10/07 02:41:05;;;;;;;;;;;;;;;20.79;50.41;102293.91;5137574;27;20280;-37
2022/10/07 02:43:46;;;;;;;;;;;;;;;20.78;50.44;102283.94;5141015;27;20368;-38
2022/10/07 02:46:12;;;;;;;;;;;;;;;20.78;50.43;102278.38;5128267;27;20043;-40
2022/10/07 02:48:40;;;;;;;;;;;;;;;20.78;50.37;102284.75;5132254;27;19959;-39
2022/10/07 02:51:08;;;;;;;;;;;;;;;20.79;50.36;102282.81;5134042;27;19965;-37
2022/10/07 02:53:33;;;;;;;;;;;;;;;20.78;50.30;102281.16;5133627;27;19975;-37
2022/10/07 02:55:59;;;;;;;;;;;;;;;20.79;50.45;102274.53;5136160;27;20531;-37
2022/10/07 02:58:25;;;;;;;;;;;;;;;20.79;50.39;102277.28;5130177;27;19962;-37
2022/10/07 03:00:51;;;;;;;;;;;;;;;20.78;50.44;102279.22;5112002;28;19931;-37
2022/10/07 03:03:17;;;;;;;;;;;;;;;20.78;50.30;102270.91;5140568;27;20007;-38
2022/10/07 03:05:43;;;;;;;;;;;;;;;20.79;50.44;102269.81;5135203;27;19931;-38
2022/10/07 03:08:09;;;;;;;;;;;;;;;20.79;50.39;102264.28;5110154;27;19928;-38
2022/10/07 03:10:34;;;;;;;;;;;;;;;20.79;50.31;102264.28;5112779;28;19969;-38
2022/10/07 03:13:03;;;;;;;;;;;;;;;20.78;50.28;102257.06;5136091;27;19949;-37
2022/10/07 03:15:29;;;;;;;;;;;;;;;20.79;50.43;102260.69;5115091;27;20401;-38
2022/10/07 03:17:54;;;;;;;;;;;;;;;20.79;50.26;102253.19;5112295;27;19980;-38
2022/10/07 03:20:21;;;;;;;;;;;;;;;20.79;50.55;102249.59;5130881;27;19931;-37
2022/10/07 03:22:46;;;;;;;;;;;;;;;20.79;50.33;102249.59;5133139;27;20305;-38
2022/10/07 03:25:12;;;;;;;;;;;;;;;20.80;50.25;102248.50;5135526;27;19930;-38
2022/10/07 03:27:38;;;;;;;;;;;;;;;20.80;50.39;102242.97;5118044;27;19931;-38
2022/10/07 03:30:04;;;;;;;;;;;;;;;20.79;50.27;102247.66;5137180;27;19975;-38
2022/10/07 03:32:30;;;;;;;;;;;;;;;20.79;50.26;102235.75;5114504;27;20039;-37
2022/10/07 03:34:55;;;;;;;;;;;;;;;20.79;50.39;102233.00;5130619;27;19936;-38
2022/10/07 03:37:21;;;;;;;;;;;;;;;20.79;50.26;102241.28;5134732;27;19929;-37
2022/10/07 03:39:47;;;;;;;;;;;;;;;20.79;50.39;102233.00;5129393;27;20627;-38
2022/10/07 03:42:12;;;;;;;;;;;;;;;20.79;50.28;102233.00;5127999;27;20302;-37
2022/10/07 03:44:38;;;;;;;;;;;;;;;20.79;50.42;102238.53;5120520;27;19959;-37
2022/10/07 03:47:03;;;;;;;;;;;;;;;20.79;50.25;102233.00;5130990;27;19927;-37
2022/10/07 03:49:35;;;;;;;;;;;;;;;20.79;50.36;102236.59;5132329;27;20739;-37
2022/10/07 03:52:01;;;;;;;;;;;;;;;20.79;50.26;102233.81;5132721;27;19924;-37
2022/10/07 03:54:27;;;;;;;;;;;;;;;20.78;50.27;102234.94;5132470;27;20411;-38
2022/10/07 03:56:53;;;;;;;;;;;;;;;20.78;50.31;102234.09;5131146;27;19923;-38
2022/10/07 03:59:18;;;;;;;;;;;;;;;20.79;50.44;102233.81;5135738;27;19932;-37
2022/10/07 04:01:44;;;;;;;;;;;;;;;20.78;50.31;102234.94;5137842;27;19931;-38
2022/10/07 04:04:10;;;;;;;;;;;;;;;20.80;50.29;102226.34;5134033;27;19923;-38
2022/10/07 04:06:37;;;;;;;;;;;;;;;20.79;50.36;102224.69;5126028;27;19967;-37
2022/10/07 04:09:03;;;;;;;;;;;;;;;20.80;50.44;102223.56;5126329;27;19971;-37
2022/10/07 04:11:28;;;;;;;;;;;;;;;20.80;50.27;102220.81;5114135;27;19937;-37
2022/10/07 04:13:54;;;;;;;;;;;;;;;20.79;50.42;102216.38;5134268;27;19927;-38
2022/10/07 04:16:21;;;;;;;;;;;;;;;20.79;50.23;102222.75;5126758;27;19931;-38
2022/10/07 04:18:47;;;;;;;;;;;;;;;20.78;50.19;102221.09;5135940;27;20017;-37
2022/10/07 04:21:12;;;;;;;;;;;;;;;20.79;50.21;102216.38;5130269;27;19931;-38
2022/10/07 04:23:39;;;;;;;;;;;;;;;20.79;50.37;102208.06;5137483;27;19942;-38
2022/10/07 04:26:06;;;;;;;;;;;;;;;20.79;50.33;102211.69;5142019;27;19974;-38
2022/10/07 04:28:31;;;;;;;;;;;;;;;20.80;50.30;102209.75;5135693;27;20006;-37
2022/10/07 04:30:57;;;;;;;;;;;;;;;20.80;50.27;102206.97;5134343;27;19927;-38
2022/10/07 04:33:23;;;;;;;;;;;;;;;20.80;50.39;102218.03;5134582;27;20014;-38
2022/10/07 04:35:49;;;;;;;;;;;;;;;20.79;50.44;102217.22;5114850;27;19930;-38
2022/10/07 04:38:15;;;;;;;;;;;;;;;20.79;50.29;102203.38;5130403;27;19948;-37
2022/10/07 04:40:41;;;;;;;;;;;;;;;20.79;50.44;102205.31;5141124;27;19962;-38
2022/10/07 04:43:26;;;;;;;;;;;;;;;20.79;50.39;102202.53;5113677;27;19978;-37
2022/10/07 04:45:53;;;;;;;;;;;;;;;20.80;50.35;102209.75;5113894;27;20018;-38
2022/10/07 04:48:19;;;;;;;;;;;;;;;20.79;50.37;102200.59;5115064;27;19931;-38
2022/10/07 04:50:45;;;;;;;;;;;;;;;20.79;50.29;102199.78;5134744;27;20031;-38
2022/10/07 04:53:13;;;;;;;;;;;;;;;20.79;50.27;102202.53;5132939;27;19924;-38
2022/10/07 04:55:39;;;;;;;;;;;;;;;20.79;50.41;102202.53;5115404;27;20018;-38
2022/10/07 04:58:04;;;;;;;;;;;;;;;20.79;50.51;102192.28;5116595;27;19966;-37
2022/10/07 05:00:30;;;;;;;;;;;;;;;20.80;50.33;102193.13;5132575;27;19967;-38
2022/10/07 05:02:56;;;;;;;;;;;;;;;20.79;50.41;102194.22;5135521;27;19930;-37
2022/10/07 05:05:22;;;;;;;;;;;;;;;20.79;50.27;102192.28;5137799;27;19923;-38
2022/10/07 05:07:49;;;;;;;;;;;;;;;20.79;50.37;102188.69;5132367;27;19924;-38
2022/10/07 05:10:15;;;;;;;;;;;;;;;20.79;50.43;102189.53;5112246;27;19967;-37
2022/10/07 05:12:41;;;;;;;;;;;;;;;20.80;50.31;102198.66;5136758;27;19923;-38
2022/10/07 05:15:07;;;;;;;;;;;;;;;20.79;50.38;102191.47;5134008;27;19927;-37
2022/10/07 05:17:32;;;;;;;;;;;;;;;20.79;50.27;102189.53;5121048;27;19938;-38
2022/10/07 05:19:58;;;;;;;;;;;;;;;20.79;50.26;102184.00;5145081;27;19923;-37
2022/10/07 05:22:23;;;;;;;;;;;;;;;20.79;50.30;102181.22;5134064;27;19930;-38
2022/10/07 05:24:49;;;;;;;;;;;;;;;20.79;50.50;102183.16;5140489;27;19931;-38
2022/10/07 05:27:14;;;;;;;;;;;;;;;20.79;50.22;102181.22;5135068;27;19923;-37
2022/10/07 05:29:40;;;;;;;;;;;;;;;20.79;50.34;102181.22;5141897;27;20286;-37
2022/10/07 05:32:06;;;;;;;;;;;;;;;20.79;50.22;102183.16;5137476;27;20338;-38
2022/10/07 05:34:31;;;;;;;;;;;;;;;20.79;50.25;102178.44;5136575;27;19924;-37
2022/10/07 05:36:58;;;;;;;;;;;;;;;20.79;50.31;102184.00;5130997;27;19927;-38
2022/10/07 05:39:23;;;;;;;;;;;;;;;20.80;50.31;102179.28;5134104;27;20018;-38
2022/10/07 05:41:49;;;;;;;;;;;;;;;20.79;50.27;102174.84;5119400;27;20407;-38
2022/10/07 05:44:15;;;;;;;;;;;;;;;20.79;50.21;102166.53;5137222;27;20267;-37
2022/10/07 05:46:40;;;;;;;;;;;;;;;20.79;50.20;102169.31;5130802;27;19923;-38
2022/10/07 05:49:06;;;;;;;;;;;;;;;20.80;50.33;102168.22;5143112;27;19923;-37
2022/10/07 05:51:32;;;;;;;;;;;;;;;20.79;50.25;102167.38;5138657;27;19942;-37
2022/10/07 05:53:57;;;;;;;;;;;;;;;20.80;50.21;102170.97;5123503;27;19955;-37
2022/10/07 05:56:23;;;;;;;;;;;;;;;20.79;50.23;102170.16;5131479;27;19942;-37
2022/10/07 05:58:49;;;;;;;;;;;;;;;20.79;50.22;102164.59;5130307;27;19977;-38
2022/10/07 06:01:15;;;;;;;;;;;;;;;20.79;50.35;102167.38;5134004;27;20023;-38
2022/10/07 06:03:41;;;;;;;;;;;;;;;20.78;50.25;102157.41;5134941;27;20428;-37
2022/10/07 06:06:07;;;;;;;;;;;;;;;20.79;50.31;102164.59;5114456;27;19924;-37
2022/10/07 06:08:33;;;;;;;;;;;;;;;20.79;50.26;102159.06;5132617;27;19924;-38
2022/10/07 06:13:46;;;;;;;;;;;;;;;20.79;50.31;102161.84;5120499;27;19955;-37
2022/10/07 06:16:12;;;;;;;;;;;;;;;20.80;50.12;102165.44;5132558;27;20476;-38
2022/10/07 06:18:38;;;;;;;;;;;;;;;20.79;50.31;102161.84;5132691;27;20005;-38
2022/10/07 06:21:04;;;;;;;;;;;;;;;20.79;50.18;102152.69;5119978;27;20336;-38
2022/10/07 06:23:29;;;;;;;;;;;;;;;20.79;50.27;102156.31;5136272;27;19967;-38
2022/10/07 06:25:55;;;;;;;;;;;;;;;20.78;50.21;102151.88;5116474;27;19934;-38
2022/10/07 06:28:21;;;;;;;;;;;;;;;20.78;50.27;102149.09;5116625;27;19978;-38
2022/10/07 06:30:47;;;;;;;;;;;;;;;20.78;50.26;102154.63;5121932;27;19923;-38
2022/10/07 06:33:13;;;;;;;;;;;;;;;20.78;50.17;102151.88;5134737;27;19931;-37
2022/10/07 06:35:38;;;;;;;;;;;;;;;20.78;50.15;102151.88;5139321;27;19931;-37
2022/10/07 06:38:04;;;;;;;;;;;;;;;20.79;50.16;102159.06;5132107;27;19931;-37
2022/10/07 06:40:30;;;;;;;;;;;;;;;20.79;50.27;102161.00;5118299;27;19931;-37
2022/10/07 06:42:55;;;;;;;;;;;;;;;20.79;50.18;102156.31;5134943;27;20264;-37
2022/10/07 06:45:22;;;;;;;;;;;;;;;20.79;50.31;102155.47;5136712;27;19930;-38
2022/10/07 06:47:47;;;;;;;;;;;;;;;20.80;50.30;102151.59;5114104;27;19959;-37
2022/10/07 06:50:13;;;;;;;;;;;;;;;20.79;50.28;102158.25;5111950;28;19930;-37
2022/10/07 06:52:39;;;;;;;;;;;;;;;20.80;50.25;102162.66;5132663;27;20021;-37
2022/10/07 06:55:08;;;;;;;;;;;;;;;20.79;50.21;102166.53;5128781;27;19924;-37
2022/10/07 06:57:34;;;;;;;;;;;;;;;20.79;50.26;102161.00;5138986;27;19942;-38
2022/10/07 07:00:11;;;;;;;;;;;;;;;20.80;50.21;102162.66;5117838;27;20037;-38
2022/10/07 07:02:36;;;;;;;;;;;;;;;20.78;50.38;102162.94;5135002;27;19923;-38
2022/10/07 07:05:04;;;;;;;;;;;;;;;20.79;50.18;102164.59;5132369;27;19968;-38
2022/10/07 07:07:30;;;;;;;;;;;;;;;20.79;50.21;102163.78;5130675;27;19969;-38
2022/10/07 07:09:55;;;;;;;;;;;;;;;20.79;50.16;102159.06;5131978;27;19931;-37
2022/10/07 07:12:24;;;;;;;;;;;;;;;20.78;50.27;102160.19;5135248;27;19924;-38
2022/10/07 07:14:50;;;;;;;;;;;;;;;20.78;50.18;102160.19;5133388;27;19924;-38
2022/10/07 07:17:15;;;;;;;;;;;;;;;20.79;50.22;102161.84;5134127;27;19948;-37
2022/10/07 07:19:41;;;;;;;;;;;;;;;20.79;50.29;102159.06;5115602;27;19933;-38
2022/10/07 07:22:07;;;;;;;;;;;;;;;20.79;50.20;102153.53;5131420;27;19930;-37
2022/10/07 07:24:33;;;;;;;;;;;;;;;20.79;50.21;102156.31;5143512;27;19927;-37
2022/10/07 07:26:58;;;;;;;;;;;;;;;20.79;50.18;102159.06;5123885;27;19923;-37
2022/10/07 07:29:25;;;;;;;;;;;;;;;20.79;50.21;102152.69;5139611;27;20092;-37
2022/10/07 07:31:50;;;;;;;;;;;;;;;20.79;50.16;102158.25;5137402;27;20347;-37
2022/10/07 07:34:16;;;;;;;;;;;;;;;20.79;50.21;102158.25;5119605;27;20383;-38
2022/10/07 07:36:43;;;;;;;;;;;;;;;20.79;50.21;102152.69;5113577;27;19924;-37
2022/10/07 07:39:09;;;;;;;;;;;;;;;20.79;50.30;102149.94;5131685;27;20013;-37
2022/10/07 07:41:37;;;;;;;;;;;;;;;20.79;50.16;102142.47;5141505;27;20224;-38
2022/10/07 07:44:03;;;;;;;;;;;;;;;20.79;50.26;102145.22;5115892;27;19965;-38
2022/10/07 07:46:33;;;;;;;;;;;;;;;20.79;50.33;102149.94;5111870;27;19996;-38
2022/10/07 07:48:58;;;;;;;;;;;;;;;20.79;50.19;102148.00;5134615;27;19973;-38
2022/10/07 07:51:24;;;;;;;;;;;;;;;20.78;50.08;102140.78;5135574;27;19927;-38
2022/10/07 07:53:51;;;;;;;;;;;;;;;20.79;50.19;102144.41;5135852;27;19928;-38
2022/10/07 07:56:16;;;;;;;;;;;;;;;20.79;50.21;102138.84;5129593;27;19974;-38
2022/10/07 07:58:42;;;;;;;;;;;;;;;20.78;50.15;102143.56;5133345;27;20279;-37
2022/10/07 08:01:08;;;;;;;;;;;;;;;20.78;50.31;102140.78;5134464;27;19932;-37
2022/10/07 08:03:36;;;;;;;;;;;;;;;20.78;50.22;102138.03;5115966;27;19934;-38
2022/10/07 08:06:02;;;;;;;;;;;;;;;20.79;50.12;102142.47;5135582;27;20055;-38
2022/10/07 08:08:28;;;;;;;;;;;;;;;20.79;50.10;102142.47;5112637;28;19931;-37
2022/10/07 08:10:54;;;;;;;;;;;;;;;20.79;50.17;102144.41;5112357;27;20022;-37
2022/10/07 08:13:19;;;;;;;;;;;;;;;20.79;50.20;102144.41;5132998;27;19931;-38
2022/10/07 08:15:45;;;;;;;;;;;;;;;20.79;50.14;102148.00;5132366;27;19932;-38
2022/10/07 08:18:10;;;;;;;;;;;;;;;20.79;50.31;102141.63;5131471;27;20374;-38
2022/10/07 08:20:37;;;;;;;;;;;;;;;20.79;50.16;102138.84;5133314;27;19934;-38
2022/10/07 08:23:03;;;;;;;;;;;;;;;20.79;50.16;102136.09;5112913;27;19923;-37
2022/10/07 08:25:28;;;;;;;;;;;;;;;20.79;50.25;102131.38;5122035;27;20497;-37
2022/10/07 08:27:54;;;;;;;;;;;;;;;20.80;50.13;102126.69;5134591;27;19931;-37
2022/10/07 08:30:19;;;;;;;;;;;;;;;20.80;50.26;102129.44;5137901;27;19927;-38
2022/10/07 08:32:45;;;;;;;;;;;;;;;20.79;50.23;102136.91;5134030;27;19930;-38
2022/10/07 08:35:10;;;;;;;;;;;;;;;20.78;50.11;102129.72;5132202;27;20385;-38
2022/10/07 08:37:36;;;;;;;;;;;;;;;20.80;50.34;102129.44;5138486;27;19976;-38
2022/10/07 08:40:02;;;;;;;;;;;;;;;20.79;50.25;102128.63;5135335;27;19923;-37
2022/10/07 08:42:29;;;;;;;;;;;;;;;20.78;50.13;102121.41;5116688;27;20351;-37
2022/10/07 08:44:54;;;;;;;;;;;;;;;20.79;50.18;102116.72;5114472;27;20031;-37
2022/10/07 08:47:33;;;;;;;;;;;;;;;20.79;50.17;102125.00;5127532;27;19932;-38
2022/10/07 08:50:19;;;;;;;;;;;;;;;20.79;50.25;102116.72;5131636;27;19966;-38
2022/10/07 08:52:47;;;;;;;;;;;;;;;20.79;50.06;102120.31;5124807;27;19931;-37
2022/10/07 08:55:16;;;;;;;;;;;;;;;20.79;50.26;102111.16;5133778;27;20082;-38
2022/10/07 08:57:45;;;;;;;;;;;;;;;20.79;50.27;102097.31;5137517;27;19950;-38
2022/10/07 09:00:14;;;;;;;;;;;;;;;20.78;50.18;102099.28;5138992;27;19927;-37
2022/10/07 09:02:59;;;;;;;;;;;;;;;20.79;50.26;102103.69;5115103;27;19985;-38
2022/10/07 09:05:26;;;;;;;;;;;;;;;20.78;50.13;102087.38;5119932;27;20385;-38
2022/10/07 09:07:53;;;;;;;;;;;;;;;20.79;50.21;102094.56;5139271;27;19968;-38
2022/10/07 09:10:29;;;;;;;;;;;;;;;20.78;50.15;102090.97;5132375;27;19970;-37
2022/10/07 09:12:57;;;;;;;;;;;;;;;20.78;50.11;102082.66;5138195;27;20054;-38
2022/10/07 09:15:32;;;;;;;;;;;;;;;20.79;50.11;102084.31;5129712;27;20327;-38
2022/10/07 09:18:01;;;;;;;;;;;;;;;20.79;50.08;102075.19;5119585;27;19923;-38
2022/10/07 09:20:29;;;;;;;;;;;;;;;20.78;50.05;102074.34;5136786;27;19967;-38
2022/10/07 09:22:56;;;;;;;;;;;;;;;20.79;50.25;102072.41;5139400;27;19954;-38
2022/10/07 09:25:22;;;;;;;;;;;;;;;20.79;50.06;102064.09;5137609;27;19965;-38
2022/10/07 09:27:50;;;;;;;;;;;;;;;20.79;50.10;102069.66;5123697;27;19976;-37
2022/10/07 09:30:15;;;;;;;;;;;;;;;20.79;50.31;102056.63;5118983;28;19967;-38
2022/10/07 09:32:42;;;;;;;;;;;;;;;20.79;50.11;102061.34;5134254;27;20574;-37
2022/10/07 09:35:12;;;;;;;;;;;;;;;20.78;50.20;102052.19;5113364;27;20323;-38
2022/10/07 09:37:49;;;;;;;;;;;;;;;20.79;50.11;102053.03;5135589;27;19931;-38
2022/10/07 09:40:31;;;;;;;;;;;;;;;20.80;50.04;102046.38;5131038;27;19965;-38
2022/10/07 09:42:57;;;;;;;;;;;;;;;20.79;50.22;102040.03;5119412;27;20423;-38
2022/10/07 09:45:24;;;;;;;;;;;;;;;20.79;50.09;102053.03;5133629;27;19937;-38
2022/10/07 09:47:51;;;;;;;;;;;;;;;20.79;50.05;102042.78;5134568;27;19989;-37
2022/10/07 09:50:28;;;;;;;;;;;;;;;20.79;50.16;102047.50;5132026;27;20007;-37
2022/10/07 09:52:54;;;;;;;;;;;;;;;20.79;50.29;102037.25;5117975;27;21469;-38
2022/10/07 09:55:31;;;;;;;;;;;;;;;20.80;50.06;102032.53;5115665;27;20375;-38
2022/10/07 09:57:59;;;;;;;;;;;;;;;20.79;50.06;102039.19;5114711;27;20391;-38
2022/10/07 10:00:25;;;;;;;;;;;;;;;20.80;50.08;102040.84;5121040;27;20530;-38
2022/10/07 10:02:52;;;;;;;;;;;;;;;20.80;50.11;102035.31;5120310;28;19931;-38
2022/10/07 10:05:20;;;;;;;;;;;;;;;20.79;50.04;102028.94;5116913;27;20386;-38
2022/10/07 10:07:46;;;;;;;;;;;;;;;20.79;50.08;102030.88;5117219;27;20015;-38
2022/10/07 10:10:29;;;;;;;;;;;;;;;20.79;50.09;102025.34;5131674;27;19927;-38
2022/10/07 10:12:55;;;;;;;;;;;;;;;20.79;50.06;102012.34;5116850;27;20362;-38
2022/10/07 10:15:24;;;;;;;;;;;;;;;20.78;50.15;102021.75;5114572;27;20414;-37
2022/10/07 10:17:50;;;;;;;;;;;;;;;20.79;50.27;102009.56;5135794;27;20072;-37
2022/10/07 10:20:23;;;;;;;;;;;;;;;20.79;50.10;102011.50;5130645;27;20018;-37
2022/10/07 10:22:49;;;;;;;;;;;;;;;20.79;50.13;102000.44;5136088;27;20340;-37
2022/10/07 10:28:20;;;;;;;;;;;;;;;20.79;50.17;101997.66;5106468;27;19959;-38
2022/10/07 10:30:51;;;;;;;;;;;;;;;20.79;50.20;101992.97;5142316;27;19932;-37
2022/10/07 10:33:19;;;;;;;;;;;;;;;20.79;50.26;101987.41;5139149;27;19923;-38
2022/10/07 10:35:49;;;;;;;;;;;;;;;20.80;50.13;101982.72;5130515;27;20015;-38
2022/10/07 10:38:22;;;;;;;;;;;;;;;20.79;50.20;101981.88;5132764;27;20440;-37
2022/10/07 10:40:55;;;;;;;;;;;;;;;20.79;50.08;101981.06;5132286;27;20327;-37
2022/10/07 10:46:04;;;;;;;;;;;;;;;20.79;50.27;101973.56;5173695;27;20297;-35
2022/10/07 10:51:22;;;;;;;;;;;;;;;20.79;50.13;101970.81;5160695;27;19940;-35
2022/10/07 10:53:50;;;;;;;;;;;;;;;20.79;50.10;101959.72;5153622;27;20010;-35
2022/10/07 10:56:35;;;;;;;;;;;;;;;20.79;50.06;101956.13;5137643;27;20220;-35
2022/10/07 10:59:08;;;;;;;;;;;;;;;20.78;50.06;101947.00;5125835;27;19974;-35
2022/10/07 11:01:35;;;;;;;;;;;;;;;20.80;50.08;101947.56;5136485;27;19970;-35
2022/10/07 11:04:21;;;;;;;;;;;;;;;20.79;50.06;101939.53;5121604;27;20395;-35
2022/10/07 11:06:50;;;;;;;;;;;;;;;20.80;50.05;101943.94;5124625;27;19982;-35
2022/10/07 11:09:17;;;;;;;;;;;;;;;20.80;50.01;101939.25;5137238;27;19966;-35
2022/10/07 11:11:42;;;;;;;;;;;;;;;20.78;50.14;101930.41;5134498;27;20371;-35
2022/10/07 11:14:12;;;;;;;;;;;;;;;20.79;50.04;101923.75;5123069;27;19934;-35
2022/10/07 11:16:39;;;;;;;;;;;;;;;20.79;50.22;101923.75;5123007;27;19990;-35
2022/10/07 11:19:08;;;;;;;;;;;;;;;20.79;50.06;101914.59;5146932;27;19958;-35
2022/10/07 11:21:37;;;;;;;;;;;;;;;20.79;50.05;101915.44;5133991;27;20359;-35
2022/10/07 11:24:09;;;;;;;;;;;;;;;20.79;50.10;101912.66;5119241;27;19957;-37
2022/10/07 11:26:36;;;;;;;;;;;;;;;20.79;50.03;101901.59;5136178;27;20389;-37
2022/10/07 11:29:09;;;;;;;;;;;;;;;20.79;50.08;101892.47;5142703;27;20030;-37
2022/10/07 11:31:35;;;;;;;;;;;;;;;20.80;50.15;101892.19;5118779;27;19978;-38
2022/10/07 11:34:21;;;;;;;;;;;;;;;20.79;50.17;101893.28;5140041;27;19923;-38
2022/10/07 11:36:51;;;;;;;;;;;;;;;20.78;50.11;101886.09;5119468;27;20006;-37
2022/10/07 11:39:17;;;;;;;;;;;;;;;20.78;50.20;101877.78;5119721;27;20387;-37
2022/10/07 11:41:47;;;;;;;;;;;;;;;20.79;50.26;101890.53;5135556;27;19931;-38
2022/10/07 11:44:16;;;;;;;;;;;;;;;20.79;50.01;101881.38;5136952;27;19969;-38
2022/10/07 11:46:43;;;;;;;;;;;;;;;20.79;50.03;101870.31;5141561;27;19999;-38
2022/10/07 11:49:13;;;;;;;;;;;;;;;20.79;50.09;101868.38;5134833;27;19923;-38
2022/10/07 11:51:40;;;;;;;;;;;;;;;20.79;49.99;101860.06;5139695;27;20022;-38
2022/10/07 11:54:07;;;;;;;;;;;;;;;20.80;50.16;101849.81;5118227;27;19970;-38
2022/10/07 11:56:52;;;;;;;;;;;;;;;20.79;50.08;101837.94;5134802;27;19959;-38
2022/10/07 11:59:26;;;;;;;;;;;;;;;20.79;50.06;101839.88;5124097;27;19990;-38
2022/10/07 12:01:52;;;;;;;;;;;;;;;20.79;50.20;101832.38;5129134;27;20006;-38
2022/10/07 12:04:23;;;;;;;;;;;;;;;20.80;50.14;101819.38;5119207;28;20018;-37
2022/10/07 12:07:08;;;;;;;;;;;;;;;20.79;50.21;101815.78;5116630;27;19928;-38
2022/10/07 12:09:54;;;;;;;;;;;;;;;20.80;50.12;101822.97;5110377;27;20047;-37
2022/10/07 12:12:21;;;;;;;;;;;;;;;20.79;50.00;101815.78;5110806;27;19984;-38
2022/10/07 12:14:56;;;;;;;;;;;;;;;20.79;50.26;101804.69;5124583;27;19958;-38
2022/10/07 12:17:22;;;;;;;;;;;;;;;20.79;50.14;101801.94;5120059;27;20018;-38
2022/10/07 12:20:08;;;;;;;;;;;;;;;20.80;50.17;101803.59;5125084;28;19974;-38
2022/10/07 12:22:34;;;;;;;;;;;;;;;20.80;50.04;101798.06;5108815;28;20021;-38
2022/10/07 12:25:20;;;;;;;;;;;;;;;20.78;50.04;101791.97;5126008;28;19963;-38
2022/10/07 12:27:45;;;;;;;;;;;;;;;20.79;50.10;101787.25;5104447;28;19967;-38
2022/10/07 12:30:31;;;;;;;;;;;;;;;20.79;50.21;101782.56;5120842;28;19955;-38
2022/10/07 12:32:56;;;;;;;;;;;;;;;20.79;50.22;101781.72;5110546;27;19978;-38
2022/10/07 12:38:22;;;;;;;;;;;;;;;20.79;50.01;101771.47;5178072;27;20384;-35
2022/10/07 12:40:50;;;;;;;;;;;;;;;20.79;50.09;101763.19;5171292;27;19957;-35
2022/10/07 12:43:24;;;;;;;;;;;;;;;20.80;50.02;101753.75;5148130;27;19964;-38
2022/10/07 12:45:50;;;;;;;;;;;;;;;20.79;50.10;101763.19;5168427;27;20026;-38
2022/10/07 12:48:19;;;;;;;;;;;;;;;20.80;50.12;101752.94;5148282;27;19924;-38
2022/10/07 12:50:45;;;;;;;;;;;;;;;20.80;49.99;101750.16;5168703;27;19954;-38
2022/10/07 12:53:10;;;;;;;;;;;;;;;20.79;50.10;101743.81;5148380;27;19946;-38
2022/10/07 12:55:36;;;;;;;;;;;;;;;20.79;50.01;101729.97;5157842;27;19923;-37